createdAt,value
2019-02-07T00:02:20.242Z,84.23
2019-02-07T00:12:25.062Z,67.87
2019-02-07T00:22:29.879Z,62.83
2019-02-07T00:32:47.877Z,65.83
2019-02-07T00:42:52.972Z,67.90
2019-02-07T00:52:57.813Z,74.93
2019-02-07T01:03:03.249Z,81.30
2019-02-07T01:13:09.554Z,77.43
2019-02-07T01:23:14.485Z,79.17
2019-02-07T01:33:19.389Z,72.63
2019-02-07T01:43:25.552Z,78.87
2019-02-07T01:53:31.115Z,76.70
2019-02-07T02:03:36.004Z,78.53
2019-02-07T02:13:40.938Z,66.90
2019-02-07T02:23:45.825Z,81.23
2019-02-07T02:33:50.763Z,72.87
2019-02-07T02:43:55.725Z,71.20
2019-02-07T02:54:01.886Z,64.53
2019-02-07T03:04:11.633Z,69.20
2019-02-07T03:14:18.156Z,62.77
2019-02-07T03:24:36.764Z,68.80
2019-02-07T03:34:43.253Z,85.77
2019-02-07T03:45:04.582Z,97.47
2019-02-07T03:55:11.050Z,104.23
2019-02-07T04:05:20.605Z,71.07
2019-02-07T04:15:27.085Z,67.23
2019-02-07T04:25:36.231Z,63.40
2019-02-07T04:35:59.422Z,66.27
2019-02-07T04:46:14.055Z,64.03
2019-02-07T04:56:26.331Z,69.40
2019-02-07T05:06:49.054Z,68.47
2019-02-07T05:17:07.954Z,64.57
2019-02-07T05:27:14.425Z,61.97
2019-02-07T05:47:52.509Z,65.33
2019-02-07T05:58:04.628Z,69.87
2019-02-07T06:08:11.246Z,74.73
2019-02-07T06:18:32.728Z,71.57
2019-02-07T06:28:47.873Z,72.60
2019-02-07T06:38:57.008Z,69.17
2019-02-07T06:49:46.052Z,71.03
2019-02-07T07:00:01.037Z,82.53
2019-02-07T07:10:18.803Z,78.43
2019-02-07T07:20:37.235Z,75.07
2019-02-07T07:30:59.968Z,80.57
2019-02-07T07:41:08.342Z,71.63
2019-02-07T07:51:20.701Z,71.73
2019-02-07T08:01:45.371Z,73.57
2019-02-07T08:12:06.597Z,71.53
2019-02-07T08:22:25.024Z,66.50
2019-02-07T08:32:40.183Z,63.23
2019-02-07T08:42:56.885Z,61.27
2019-02-07T08:53:06.522Z,57.73
2019-02-07T09:03:14.031Z,63.40
2019-02-07T09:13:43.553Z,63.20
2019-02-07T09:24:06.356Z,59.00
2019-02-07T09:34:12.649Z,60.13
2019-02-07T09:44:28.263Z,47.23
2019-02-07T09:54:34.572Z,54.77
2019-02-07T10:04:40.901Z,51.83
2019-02-07T10:14:53.221Z,56.50
2019-02-07T10:25:11.840Z,53.90
2019-02-07T10:35:45.618Z,49.40
2019-02-07T10:45:51.918Z,53.63
2019-02-07T10:56:07.595Z,42.77
2019-02-07T11:06:26.098Z,56.90
2019-02-07T11:16:48.143Z,37.85
2019-02-07T11:26:54.527Z,37.10
2019-02-07T11:37:12.872Z,37.50
2019-02-07T11:47:25.599Z,39.47
2019-02-07T11:57:45.040Z,36.93
2019-02-07T12:08:00.627Z,42.03
2019-02-07T12:18:09.635Z,62.53
2019-02-07T12:28:36.071Z,41.30
2019-02-07T12:48:57.266Z,51.27
2019-02-07T12:59:09.376Z,107.90
2019-02-07T13:09:28.173Z,101.40
2019-02-07T13:19:40.851Z,79.73
2019-02-07T13:29:50.883Z,62.70
2019-02-07T13:40:01.491Z,57.43
2019-02-07T13:50:12.457Z,64.63
2019-02-07T14:00:26.250Z,93.10
2019-02-07T14:10:35.797Z,123.60
2019-02-07T14:20:58.766Z,115.60
2019-02-07T14:31:14.597Z,68.10
2019-02-07T14:41:26.960Z,66.30
2019-02-07T14:51:38.226Z,61.40
2019-02-07T15:01:43.157Z,60.37
2019-02-07T15:11:47.892Z,64.10
2019-02-07T15:21:52.812Z,58.73
2019-02-07T15:32:00.587Z,65.70
2019-02-07T15:42:05.673Z,74.83
2019-02-07T15:52:10.422Z,69.13
2019-02-07T16:02:15.993Z,72.60
2019-02-07T16:12:20.752Z,84.53
2019-02-07T16:33:12.462Z,85.10
2019-02-07T16:43:17.235Z,69.93
2019-02-07T16:53:23.140Z,76.83
2019-02-07T17:03:27.990Z,62.63
2019-02-07T17:13:35.001Z,66.17
2019-02-07T17:23:41.168Z,64.60
2019-02-07T17:33:48.952Z,55.67
2019-02-07T17:43:53.917Z,57.30
2019-02-07T17:53:58.802Z,59.00
2019-02-07T18:04:03.507Z,61.67
2019-02-07T18:14:08.273Z,74.43
2019-02-07T18:24:13.159Z,62.40
2019-02-07T18:34:17.917Z,65.03
2019-02-07T18:44:22.679Z,64.53
2019-02-07T18:54:27.425Z,57.90
2019-02-07T19:15:26.008Z,58.77
2019-02-07T19:25:31.606Z,63.73
2019-02-07T19:35:37.297Z,59.70
2019-02-07T19:45:44.137Z,64.67
2019-02-07T19:55:50.192Z,59.97
2019-02-07T20:06:07.408Z,63.20
2019-02-07T20:16:12.703Z,54.57
2019-02-07T20:26:18.811Z,59.00
2019-02-07T20:36:24.626Z,55.33
2019-02-07T20:46:30.928Z,58.90
2019-02-07T20:56:36.634Z,64.43
2019-02-07T21:06:42.737Z,78.80
2019-02-07T21:16:48.553Z,63.67
2019-02-07T21:26:54.132Z,58.47
2019-02-07T21:36:59.625Z,68.73
2019-02-07T21:47:05.027Z,57.70
2019-02-07T21:57:10.726Z,65.47
2019-02-07T22:07:16.233Z,62.47
2019-02-07T22:17:22.232Z,76.70
2019-02-07T22:27:27.726Z,68.13
2019-02-07T22:37:33.214Z,69.30
2019-02-07T22:47:38.614Z,67.10
2019-02-07T22:57:44.217Z,60.90
2019-02-07T23:07:59.394Z,76.17
2019-02-07T23:18:06.913Z,80.50
2019-02-07T23:28:12.415Z,83.10
2019-02-07T23:38:17.862Z,81.97
2019-02-07T23:48:23.271Z,75.00
2019-02-07T23:58:28.652Z,65.90
